sensor_id;sensor_type;location;lat;lon;timestamp;P1;durP1;ratioP1;P2;durP2;ratioP2
4873;SDS011;2451;49.970;9.068;2024-01-30T00:01:48;14.02;;;8.77;;
4873;SDS011;2451;49.970;9.068;2024-01-30T00:04:16;13.98;;;8.65;;
4873;SDS011;2451;49.970;9.068;2024-01-30T00:06:43;14.75;;;8.82;;
4873;SDS011;2451;49.970;9.068;2024-01-30T00:09:08;13.13;;;7.72;;
4873;SDS011;2451;49.970;9.068;2024-01-30T00:11:35;13.55;;;8.75;;
4873;SDS011;2451;49.970;9.068;2024-01-30T00:14:04;12.68;;;7.88;;
4873;SDS011;2451;49.970;9.068;2024-01-30T00:16:30;13.50;;;8.02;;
4873;SDS011;2451;49.970;9.068;2024-01-30T00:18:56;13.35;;;8.35;;
4873;SDS011;2451;49.970;9.068;2024-01-30T00:21:21;12.02;;;7.47;;
4873;SDS011;2451;49.970;9.068;2024-01-30T00:23:49;11.23;;;6.72;;
4873;SDS011;2451;49.970;9.068;2024-01-30T00:26:17;15.00;;;8.18;;
4873;SDS011;2451;49.970;9.068;2024-01-30T00:28:42;13.15;;;7.90;;
4873;SDS011;2451;49.970;9.068;2024-01-30T00:31:08;13.18;;;7.82;;
4873;SDS011;2451;49.970;9.068;2024-01-30T00:33:40;15.43;;;8.05;;
4873;SDS011;2451;49.970;9.068;2024-01-30T00:36:06;12.20;;;7.60;;
4873;SDS011;2451;49.970;9.068;2024-01-30T00:38:33;12.52;;;7.47;;
4873;SDS011;2451;49.970;9.068;2024-01-30T00:40:58;12.35;;;7.78;;
4873;SDS011;2451;49.970;9.068;2024-01-30T00:43:27;12.63;;;7.85;;
4873;SDS011;2451;49.970;9.068;2024-01-30T00:45:53;12.52;;;7.75;;
4873;SDS011;2451;49.970;9.068;2024-01-30T00:48:19;11.45;;;7.75;;
4873;SDS011;2451;49.970;9.068;2024-01-30T00:50:44;16.00;;;8.82;;
4873;SDS011;2451;49.970;9.068;2024-01-30T00:53:10;16.23;;;9.18;;
4873;SDS011;2451;49.970;9.068;2024-01-30T00:55:36;13.75;;;8.30;;
4873;SDS011;2451;49.970;9.068;2024-01-30T00:58:01;15.50;;;8.60;;
4873;SDS011;2451;49.970;9.068;2024-01-30T01:00:28;13.68;;;8.68;;
4873;SDS011;2451;49.970;9.068;2024-01-30T01:03:00;13.60;;;8.30;;
4873;SDS011;2451;49.970;9.068;2024-01-30T01:05:26;12.02;;;8.07;;
4873;SDS011;2451;49.970;9.068;2024-01-30T01:07:51;13.63;;;8.25;;
4873;SDS011;2451;49.970;9.068;2024-01-30T01:10:17;15.05;;;8.80;;
4873;SDS011;2451;49.970;9.068;2024-01-30T01:12:43;17.65;;;8.93;;
4873;SDS011;2451;49.970;9.068;2024-01-30T01:17:38;15.95;;;9.65;;
4873;SDS011;2451;49.970;9.068;2024-01-30T01:20:04;16.38;;;9.10;;
4873;SDS011;2451;49.970;9.068;2024-01-30T01:22:31;12.90;;;9.10;;
4873;SDS011;2451;49.970;9.068;2024-01-30T01:24:57;16.63;;;8.90;;
4873;SDS011;2451;49.970;9.068;2024-01-30T01:27:24;14.50;;;9.05;;
4873;SDS011;2451;49.970;9.068;2024-01-30T01:29:50;15.15;;;9.15;;
4873;SDS011;2451;49.970;9.068;2024-01-30T01:32:15;12.93;;;8.70;;
4873;SDS011;2451;49.970;9.068;2024-01-30T01:34:41;14.73;;;9.23;;
4873;SDS011;2451;49.970;9.068;2024-01-30T01:37:07;14.57;;;8.85;;
4873;SDS011;2451;49.970;9.068;2024-01-30T01:39:32;13.98;;;8.75;;
4873;SDS011;2451;49.970;9.068;2024-01-30T01:41:58;14.73;;;8.18;;
4873;SDS011;2451;49.970;9.068;2024-01-30T01:44:23;13.52;;;8.07;;
4873;SDS011;2451;49.970;9.068;2024-01-30T01:46:52;14.57;;;7.65;;
4873;SDS011;2451;49.970;9.068;2024-01-30T01:49:19;12.40;;;8.32;;
4873;SDS011;2451;49.970;9.068;2024-01-30T01:51:45;19.83;;;9.25;;
4873;SDS011;2451;49.970;9.068;2024-01-30T01:54:15;13.27;;;8.02;;
4873;SDS011;2451;49.970;9.068;2024-01-30T01:56:42;13.10;;;9.10;;
4873;SDS011;2451;49.970;9.068;2024-01-30T01:59:08;13.13;;;7.43;;
4873;SDS011;2451;49.970;9.068;2024-01-30T02:01:36;14.63;;;7.70;;
4873;SDS011;2451;49.970;9.068;2024-01-30T02:04:02;12.48;;;7.82;;
4873;SDS011;2451;49.970;9.068;2024-01-30T02:06:28;13.88;;;8.60;;
4873;SDS011;2451;49.970;9.068;2024-01-30T02:08:54;13.13;;;8.02;;
4873;SDS011;2451;49.970;9.068;2024-01-30T02:11:20;13.65;;;8.60;;
4873;SDS011;2451;49.970;9.068;2024-01-30T02:13:47;15.13;;;8.68;;
4873;SDS011;2451;49.970;9.068;2024-01-30T02:16:12;13.88;;;8.80;;
4873;SDS011;2451;49.970;9.068;2024-01-30T02:18:38;15.00;;;8.20;;
4873;SDS011;2451;49.970;9.068;2024-01-30T02:21:08;14.35;;;7.65;;
4873;SDS011;2451;49.970;9.068;2024-01-30T02:23:33;15.82;;;8.85;;
4873;SDS011;2451;49.970;9.068;2024-01-30T02:25:59;14.40;;;8.27;;
4873;SDS011;2451;49.970;9.068;2024-01-30T02:28:25;12.40;;;8.13;;
4873;SDS011;2451;49.970;9.068;2024-01-30T02:30:51;12.65;;;8.50;;
4873;SDS011;2451;49.970;9.068;2024-01-30T02:33:16;13.52;;;8.57;;
4873;SDS011;2451;49.970;9.068;2024-01-30T02:35:42;13.57;;;8.32;;
4873;SDS011;2451;49.970;9.068;2024-01-30T02:38:08;12.50;;;8.23;;
4873;SDS011;2451;49.970;9.068;2024-01-30T02:40:33;14.65;;;8.55;;
4873;SDS011;2451;49.970;9.068;2024-01-30T02:42:59;13.57;;;8.13;;
4873;SDS011;2451;49.970;9.068;2024-01-30T02:45:26;14.88;;;9.32;;
4873;SDS011;2451;49.970;9.068;2024-01-30T02:47:52;12.50;;;8.32;;
4873;SDS011;2451;49.970;9.068;2024-01-30T02:50:18;14.88;;;9.02;;
4873;SDS011;2451;49.970;9.068;2024-01-30T02:52:43;12.50;;;8.45;;
4873;SDS011;2451;49.970;9.068;2024-01-30T02:55:09;14.15;;;8.60;;
4873;SDS011;2451;49.970;9.068;2024-01-30T02:57:35;15.60;;;8.60;;
4873;SDS011;2451;49.970;9.068;2024-01-30T03:00:01;17.52;;;9.60;;
4873;SDS011;2451;49.970;9.068;2024-01-30T03:02:28;19.20;;;10.30;;
4873;SDS011;2451;49.970;9.068;2024-01-30T03:04:53;23.15;;;11.90;;
4873;SDS011;2451;49.970;9.068;2024-01-30T03:07:22;23.27;;;12.50;;
4873;SDS011;2451;49.970;9.068;2024-01-30T03:09:47;32.85;;;14.27;;
4873;SDS011;2451;49.970;9.068;2024-01-30T03:12:13;31.80;;;13.15;;
4873;SDS011;2451;49.970;9.068;2024-01-30T03:14:39;29.95;;;13.40;;
4873;SDS011;2451;49.970;9.068;2024-01-30T03:17:04;30.00;;;13.02;;
4873;SDS011;2451;49.970;9.068;2024-01-30T03:19:30;22.33;;;11.63;;
4873;SDS011;2451;49.970;9.068;2024-01-30T03:21:55;18.58;;;11.02;;
4873;SDS011;2451;49.970;9.068;2024-01-30T03:24:21;16.10;;;10.80;;
4873;SDS011;2451;49.970;9.068;2024-01-30T03:26:46;15.98;;;9.05;;
4873;SDS011;2451;49.970;9.068;2024-01-30T03:29:12;16.83;;;9.18;;
4873;SDS011;2451;49.970;9.068;2024-01-30T03:31:38;14.35;;;9.32;;
4873;SDS011;2451;49.970;9.068;2024-01-30T03:34:04;13.52;;;9.05;;
4873;SDS011;2451;49.970;9.068;2024-01-30T03:36:32;14.68;;;9.13;;
4873;SDS011;2451;49.970;9.068;2024-01-30T03:38:59;14.73;;;8.82;;
4873;SDS011;2451;49.970;9.068;2024-01-30T03:41:25;14.30;;;8.77;;
4873;SDS011;2451;49.970;9.068;2024-01-30T03:43:50;14.27;;;9.45;;
4873;SDS011;2451;49.970;9.068;2024-01-30T03:46:16;16.00;;;9.75;;
4873;SDS011;2451;49.970;9.068;2024-01-30T03:48:42;13.38;;;9.02;;
4873;SDS011;2451;49.970;9.068;2024-01-30T03:51:07;14.25;;;9.18;;
4873;SDS011;2451;49.970;9.068;2024-01-30T03:53:34;16.45;;;9.00;;
4873;SDS011;2451;49.970;9.068;2024-01-30T03:56:00;15.93;;;10.05;;
4873;SDS011;2451;49.970;9.068;2024-01-30T03:58:26;13.27;;;9.13;;
4873;SDS011;2451;49.970;9.068;2024-01-30T04:00:51;13.73;;;9.82;;
4873;SDS011;2451;49.970;9.068;2024-01-30T04:03:17;12.52;;;8.93;;
4873;SDS011;2451;49.970;9.068;2024-01-30T04:05:43;14.15;;;9.32;;
4873;SDS011;2451;49.970;9.068;2024-01-30T04:08:11;14.52;;;9.70;;
4873;SDS011;2451;49.970;9.068;2024-01-30T04:10:37;14.43;;;9.55;;
4873;SDS011;2451;49.970;9.068;2024-01-30T04:13:03;12.45;;;9.50;;
4873;SDS011;2451;49.970;9.068;2024-01-30T04:15:28;14.18;;;9.00;;
4873;SDS011;2451;49.970;9.068;2024-01-30T04:17:56;16.52;;;8.75;;
4873;SDS011;2451;49.970;9.068;2024-01-30T04:22:49;14.93;;;9.02;;
4873;SDS011;2451;49.970;9.068;2024-01-30T04:25:15;13.73;;;8.95;;
4873;SDS011;2451;49.970;9.068;2024-01-30T04:27:41;13.75;;;9.02;;
4873;SDS011;2451;49.970;9.068;2024-01-30T04:30:06;15.40;;;9.73;;
4873;SDS011;2451;49.970;9.068;2024-01-30T04:32:32;13.45;;;9.35;;
4873;SDS011;2451;49.970;9.068;2024-01-30T04:34:58;14.90;;;9.13;;
4873;SDS011;2451;49.970;9.068;2024-01-30T04:37:23;14.95;;;9.52;;
4873;SDS011;2451;49.970;9.068;2024-01-30T04:39:50;13.73;;;9.27;;
4873;SDS011;2451;49.970;9.068;2024-01-30T04:42:16;14.75;;;9.38;;
4873;SDS011;2451;49.970;9.068;2024-01-30T04:44:42;16.85;;;9.45;;
4873;SDS011;2451;49.970;9.068;2024-01-30T04:47:07;15.00;;;9.50;;
4873;SDS011;2451;49.970;9.068;2024-01-30T04:49:34;17.00;;;10.05;;
4873;SDS011;2451;49.970;9.068;2024-01-30T04:52:00;14.05;;;9.13;;
4873;SDS011;2451;49.970;9.068;2024-01-30T04:54:25;14.90;;;9.95;;
4873;SDS011;2451;49.970;9.068;2024-01-30T04:56:51;15.18;;;9.88;;
4873;SDS011;2451;49.970;9.068;2024-01-30T04:59:16;13.77;;;9.45;;
4873;SDS011;2451;49.970;9.068;2024-01-30T05:01:42;16.48;;;10.60;;
4873;SDS011;2451;49.970;9.068;2024-01-30T05:04:07;15.13;;;9.50;;
4873;SDS011;2451;49.970;9.068;2024-01-30T05:06:33;16.10;;;10.00;;
4873;SDS011;2451;49.970;9.068;2024-01-30T05:09:02;14.10;;;9.70;;
4873;SDS011;2451;49.970;9.068;2024-01-30T05:11:31;14.85;;;10.40;;
4873;SDS011;2451;49.970;9.068;2024-01-30T05:14:01;15.52;;;10.18;;
4873;SDS011;2451;49.970;9.068;2024-01-30T05:16:27;17.88;;;10.38;;
4873;SDS011;2451;49.970;9.068;2024-01-30T05:18:52;15.23;;;10.05;;
4873;SDS011;2451;49.970;9.068;2024-01-30T05:21:18;14.48;;;9.90;;
4873;SDS011;2451;49.970;9.068;2024-01-30T05:23:43;16.80;;;10.60;;
4873;SDS011;2451;49.970;9.068;2024-01-30T05:26:09;15.98;;;9.93;;
4873;SDS011;2451;49.970;9.068;2024-01-30T05:28:35;14.45;;;9.90;;
4873;SDS011;2451;49.970;9.068;2024-01-30T05:31:01;17.30;;;10.10;;
4873;SDS011;2451;49.970;9.068;2024-01-30T05:33:27;15.68;;;9.75;;
4873;SDS011;2451;49.970;9.068;2024-01-30T05:35:53;14.93;;;9.95;;
4873;SDS011;2451;49.970;9.068;2024-01-30T05:38:19;14.50;;;9.25;;
4873;SDS011;2451;49.970;9.068;2024-01-30T05:40:45;14.38;;;10.20;;
4873;SDS011;2451;49.970;9.068;2024-01-30T05:43:10;13.88;;;9.68;;
4873;SDS011;2451;49.970;9.068;2024-01-30T05:45:44;15.07;;;10.07;;
4873;SDS011;2451;49.970;9.068;2024-01-30T05:48:09;13.65;;;9.57;;
4873;SDS011;2451;49.970;9.068;2024-01-30T05:50:35;15.23;;;9.57;;
4873;SDS011;2451;49.970;9.068;2024-01-30T05:53:00;14.80;;;9.90;;
4873;SDS011;2451;49.970;9.068;2024-01-30T05:55:26;17.77;;;9.82;;
4873;SDS011;2451;49.970;9.068;2024-01-30T05:57:52;16.35;;;9.98;;
4873;SDS011;2451;49.970;9.068;2024-01-30T06:00:17;13.45;;;9.13;;
4873;SDS011;2451;49.970;9.068;2024-01-30T06:02:43;15.20;;;10.23;;
4873;SDS011;2451;49.970;9.068;2024-01-30T06:05:09;13.80;;;9.63;;
4873;SDS011;2451;49.970;9.068;2024-01-30T06:07:35;14.63;;;9.60;;
4873;SDS011;2451;49.970;9.068;2024-01-30T06:10:00;14.95;;;10.45;;
4873;SDS011;2451;49.970;9.068;2024-01-30T06:12:27;18.20;;;12.07;;
4873;SDS011;2451;49.970;9.068;2024-01-30T06:14:53;19.05;;;12.30;;
4873;SDS011;2451;49.970;9.068;2024-01-30T06:17:21;16.23;;;10.60;;
4873;SDS011;2451;49.970;9.068;2024-01-30T06:19:50;15.77;;;10.20;;
4873;SDS011;2451;49.970;9.068;2024-01-30T06:22:16;18.13;;;11.32;;
4873;SDS011;2451;49.970;9.068;2024-01-30T06:24:41;33.55;;;18.55;;
4873;SDS011;2451;49.970;9.068;2024-01-30T06:27:09;28.40;;;15.20;;
4873;SDS011;2451;49.970;9.068;2024-01-30T06:29:35;21.95;;;13.13;;
4873;SDS011;2451;49.970;9.068;2024-01-30T06:32:01;15.48;;;10.30;;
4873;SDS011;2451;49.970;9.068;2024-01-30T06:34:26;15.73;;;10.55;;
4873;SDS011;2451;49.970;9.068;2024-01-30T06:36:52;15.13;;;10.27;;
4873;SDS011;2451;49.970;9.068;2024-01-30T06:39:17;16.63;;;10.95;;
4873;SDS011;2451;49.970;9.068;2024-01-30T06:41:43;23.88;;;13.18;;
4873;SDS011;2451;49.970;9.068;2024-01-30T06:44:11;22.65;;;14.15;;
4873;SDS011;2451;49.970;9.068;2024-01-30T06:46:37;18.92;;;11.82;;
4873;SDS011;2451;49.970;9.068;2024-01-30T06:49:03;14.80;;;10.80;;
4873;SDS011;2451;49.970;9.068;2024-01-30T06:51:28;13.73;;;10.15;;
4873;SDS011;2451;49.970;9.068;2024-01-30T06:53:54;19.90;;;11.68;;
4873;SDS011;2451;49.970;9.068;2024-01-30T06:56:19;24.35;;;13.90;;
4873;SDS011;2451;49.970;9.068;2024-01-30T06:58:48;25.17;;;13.10;;
4873;SDS011;2451;49.970;9.068;2024-01-30T07:01:15;18.25;;;12.05;;
4873;SDS011;2451;49.970;9.068;2024-01-30T07:03:41;17.80;;;11.02;;
4873;SDS011;2451;49.970;9.068;2024-01-30T07:06:07;16.27;;;10.93;;
4873;SDS011;2451;49.970;9.068;2024-01-30T07:08:32;16.13;;;11.10;;
4873;SDS011;2451;49.970;9.068;2024-01-30T07:10:58;16.27;;;10.10;;
4873;SDS011;2451;49.970;9.068;2024-01-30T07:13:27;17.05;;;10.77;;
4873;SDS011;2451;49.970;9.068;2024-01-30T07:15:53;16.83;;;10.85;;
4873;SDS011;2451;49.970;9.068;2024-01-30T07:18:19;40.05;;;20.60;;
4873;SDS011;2451;49.970;9.068;2024-01-30T07:20:44;36.95;;;21.10;;
4873;SDS011;2451;49.970;9.068;2024-01-30T07:25:43;19.75;;;12.98;;
4873;SDS011;2451;49.970;9.068;2024-01-30T07:28:09;17.13;;;11.95;;
4873;SDS011;2451;49.970;9.068;2024-01-30T07:30:36;17.25;;;11.60;;
4873;SDS011;2451;49.970;9.068;2024-01-30T07:33:01;16.67;;;11.35;;
4873;SDS011;2451;49.970;9.068;2024-01-30T07:35:27;16.08;;;10.93;;
4873;SDS011;2451;49.970;9.068;2024-01-30T07:37:53;19.63;;;11.32;;
4873;SDS011;2451;49.970;9.068;2024-01-30T07:40:18;15.90;;;10.60;;
4873;SDS011;2451;49.970;9.068;2024-01-30T07:42:44;16.40;;;10.48;;
4873;SDS011;2451;49.970;9.068;2024-01-30T07:45:09;18.65;;;11.77;;
4873;SDS011;2451;49.970;9.068;2024-01-30T07:47:35;18.55;;;12.35;;
4873;SDS011;2451;49.970;9.068;2024-01-30T07:50:00;27.23;;;14.52;;
4873;SDS011;2451;49.970;9.068;2024-01-30T07:52:26;23.27;;;13.90;;
4873;SDS011;2451;49.970;9.068;2024-01-30T07:54:52;22.98;;;14.60;;
4873;SDS011;2451;49.970;9.068;2024-01-30T07:57:17;26.75;;;13.55;;
4873;SDS011;2451;49.970;9.068;2024-01-30T07:59:43;17.10;;;10.18;;
4873;SDS011;2451;49.970;9.068;2024-01-30T08:02:09;18.05;;;10.23;;
4873;SDS011;2451;49.970;9.068;2024-01-30T08:04:36;15.23;;;10.00;;
4873;SDS011;2451;49.970;9.068;2024-01-30T08:07:02;14.15;;;10.23;;
4873;SDS011;2451;49.970;9.068;2024-01-30T08:09:28;15.95;;;10.82;;
4873;SDS011;2451;49.970;9.068;2024-01-30T08:11:53;16.83;;;10.85;;
4873;SDS011;2451;49.970;9.068;2024-01-30T08:14:19;16.85;;;10.85;;
4873;SDS011;2451;49.970;9.068;2024-01-30T08:16:45;16.98;;;11.05;;
4873;SDS011;2451;49.970;9.068;2024-01-30T08:19:10;15.20;;;10.40;;
4873;SDS011;2451;49.970;9.068;2024-01-30T08:21:36;16.20;;;10.50;;
4873;SDS011;2451;49.970;9.068;2024-01-30T08:24:03;13.73;;;10.13;;
4873;SDS011;2451;49.970;9.068;2024-01-30T08:26:29;14.30;;;9.50;;
4873;SDS011;2451;49.970;9.068;2024-01-30T08:28:58;14.30;;;9.85;;
4873;SDS011;2451;49.970;9.068;2024-01-30T08:31:26;15.30;;;10.07;;
4873;SDS011;2451;49.970;9.068;2024-01-30T08:33:52;15.48;;;10.32;;
4873;SDS011;2451;49.970;9.068;2024-01-30T08:36:17;16.25;;;10.02;;
4873;SDS011;2451;49.970;9.068;2024-01-30T08:38:43;15.32;;;10.10;;
4873;SDS011;2451;49.970;9.068;2024-01-30T08:41:12;15.60;;;9.85;;
4873;SDS011;2451;49.970;9.068;2024-01-30T08:46:04;17.20;;;10.45;;
4873;SDS011;2451;49.970;9.068;2024-01-30T08:48:29;16.13;;;9.93;;
4873;SDS011;2451;49.970;9.068;2024-01-30T08:50:55;15.98;;;10.32;;
4873;SDS011;2451;49.970;9.068;2024-01-30T08:53:23;17.45;;;10.50;;
4873;SDS011;2451;49.970;9.068;2024-01-30T08:55:49;16.80;;;9.88;;
4873;SDS011;2451;49.970;9.068;2024-01-30T08:58:15;16.55;;;9.80;;
4873;SDS011;2451;49.970;9.068;2024-01-30T09:00:44;17.15;;;9.82;;
4873;SDS011;2451;49.970;9.068;2024-01-30T09:03:09;19.25;;;11.10;;
4873;SDS011;2451;49.970;9.068;2024-01-30T09:05:35;18.50;;;10.35;;
4873;SDS011;2451;49.970;9.068;2024-01-30T09:08:00;16.45;;;10.40;;
4873;SDS011;2451;49.970;9.068;2024-01-30T09:10:26;17.50;;;9.73;;
4873;SDS011;2451;49.970;9.068;2024-01-30T09:12:52;12.88;;;9.00;;
4873;SDS011;2451;49.970;9.068;2024-01-30T09:15:17;17.50;;;10.07;;
4873;SDS011;2451;49.970;9.068;2024-01-30T09:17:44;17.35;;;9.63;;
4873;SDS011;2451;49.970;9.068;2024-01-30T09:20:09;14.95;;;9.23;;
4873;SDS011;2451;49.970;9.068;2024-01-30T09:22:35;15.20;;;10.13;;
4873;SDS011;2451;49.970;9.068;2024-01-30T09:25:01;16.33;;;8.60;;
4873;SDS011;2451;49.970;9.068;2024-01-30T09:27:27;13.77;;;8.32;;
4873;SDS011;2451;49.970;9.068;2024-01-30T09:29:53;13.18;;;8.73;;
4873;SDS011;2451;49.970;9.068;2024-01-30T09:32:18;15.20;;;9.55;;
4873;SDS011;2451;49.970;9.068;2024-01-30T09:34:44;16.33;;;9.55;;
4873;SDS011;2451;49.970;9.068;2024-01-30T09:37:09;17.33;;;11.20;;
4873;SDS011;2451;49.970;9.068;2024-01-30T09:39:35;16.90;;;10.05;;
4873;SDS011;2451;49.970;9.068;2024-01-30T09:42:12;15.25;;;9.60;;
4873;SDS011;2451;49.970;9.068;2024-01-30T09:47:07;15.20;;;9.23;;
4873;SDS011;2451;49.970;9.068;2024-01-30T09:49:33;13.13;;;8.73;;
4873;SDS011;2451;49.970;9.068;2024-01-30T09:52:00;16.95;;;9.63;;
4873;SDS011;2451;49.970;9.068;2024-01-30T09:54:29;15.40;;;9.15;;
4873;SDS011;2451;49.970;9.068;2024-01-30T09:56:56;15.10;;;8.97;;
4873;SDS011;2451;49.970;9.068;2024-01-30T09:59:22;14.95;;;9.30;;
4873;SDS011;2451;49.970;9.068;2024-01-30T10:01:47;20.10;;;10.65;;
4873;SDS011;2451;49.970;9.068;2024-01-30T10:04:14;13.95;;;9.00;;
4873;SDS011;2451;49.970;9.068;2024-01-30T10:06:40;15.20;;;9.45;;
4873;SDS011;2451;49.970;9.068;2024-01-30T10:09:05;19.10;;;10.43;;
4873;SDS011;2451;49.970;9.068;2024-01-30T10:11:31;19.70;;;10.63;;
4873;SDS011;2451;49.970;9.068;2024-01-30T10:13:56;17.83;;;9.73;;
4873;SDS011;2451;49.970;9.068;2024-01-30T10:16:22;14.90;;;8.57;;
4873;SDS011;2451;49.970;9.068;2024-01-30T10:18:48;15.90;;;8.48;;
4873;SDS011;2451;49.970;9.068;2024-01-30T10:21:14;15.27;;;9.52;;
4873;SDS011;2451;49.970;9.068;2024-01-30T10:23:39;13.20;;;8.93;;
4873;SDS011;2451;49.970;9.068;2024-01-30T10:26:06;14.25;;;9.48;;
4873;SDS011;2451;49.970;9.068;2024-01-30T10:28:32;14.63;;;8.80;;
4873;SDS011;2451;49.970;9.068;2024-01-30T10:30:59;16.80;;;8.95;;
4873;SDS011;2451;49.970;9.068;2024-01-30T10:33:27;13.48;;;9.20;;
4873;SDS011;2451;49.970;9.068;2024-01-30T10:35:57;16.17;;;8.68;;
4873;SDS011;2451;49.970;9.068;2024-01-30T10:38:28;13.98;;;8.65;;
4873;SDS011;2451;49.970;9.068;2024-01-30T10:40:58;16.27;;;8.90;;
4873;SDS011;2451;49.970;9.068;2024-01-30T10:43:36;15.93;;;9.18;;
4873;SDS011;2451;49.970;9.068;2024-01-30T10:46:18;22.02;;;11.75;;
4873;SDS011;2451;49.970;9.068;2024-01-30T10:48:48;15.50;;;8.98;;
4873;SDS011;2451;49.970;9.068;2024-01-30T10:51:20;15.52;;;9.10;;
4873;SDS011;2451;49.970;9.068;2024-01-30T10:53:47;16.27;;;9.05;;
4873;SDS011;2451;49.970;9.068;2024-01-30T10:56:15;15.70;;;9.55;;
4873;SDS011;2451;49.970;9.068;2024-01-30T10:58:41;14.73;;;9.10;;
4873;SDS011;2451;49.970;9.068;2024-01-30T11:01:07;13.65;;;8.30;;
4873;SDS011;2451;49.970;9.068;2024-01-30T11:03:34;16.58;;;9.25;;
4873;SDS011;2451;49.970;9.068;2024-01-30T11:06:01;13.77;;;8.68;;
4873;SDS011;2451;49.970;9.068;2024-01-30T11:08:28;14.60;;;8.93;;
4873;SDS011;2451;49.970;9.068;2024-01-30T11:10:57;15.15;;;8.60;;
4873;SDS011;2451;49.970;9.068;2024-01-30T11:13:30;14.38;;;8.57;;
4873;SDS011;2451;49.970;9.068;2024-01-30T11:15:59;15.55;;;9.35;;
4873;SDS011;2451;49.970;9.068;2024-01-30T11:18:28;16.80;;;9.68;;
4873;SDS011;2451;49.970;9.068;2024-01-30T11:21:01;14.60;;;9.15;;
4873;SDS011;2451;49.970;9.068;2024-01-30T11:23:33;17.17;;;10.27;;
4873;SDS011;2451;49.970;9.068;2024-01-30T11:26:00;16.42;;;10.10;;
4873;SDS011;2451;49.970;9.068;2024-01-30T11:28:25;14.73;;;9.30;;
4873;SDS011;2451;49.970;9.068;2024-01-30T11:31:04;17.10;;;9.38;;
4873;SDS011;2451;49.970;9.068;2024-01-30T11:33:32;16.10;;;9.50;;
4873;SDS011;2451;49.970;9.068;2024-01-30T11:35:58;15.77;;;9.57;;
4873;SDS011;2451;49.970;9.068;2024-01-30T11:38:25;15.95;;;9.27;;
4873;SDS011;2451;49.970;9.068;2024-01-30T11:40:52;16.30;;;9.68;;
4873;SDS011;2451;49.970;9.068;2024-01-30T11:43:24;14.38;;;9.38;;
4873;SDS011;2451;49.970;9.068;2024-01-30T11:45:50;14.82;;;8.55;;
4873;SDS011;2451;49.970;9.068;2024-01-30T11:48:15;15.70;;;8.73;;
4873;SDS011;2451;49.970;9.068;2024-01-30T11:50:44;12.68;;;8.02;;
4873;SDS011;2451;49.970;9.068;2024-01-30T11:53:10;14.32;;;9.13;;
4873;SDS011;2451;49.970;9.068;2024-01-30T11:55:35;14.98;;;9.30;;
4873;SDS011;2451;49.970;9.068;2024-01-30T11:58:02;14.95;;;8.50;;
4873;SDS011;2451;49.970;9.068;2024-01-30T12:00:29;15.05;;;8.63;;
4873;SDS011;2451;49.970;9.068;2024-01-30T12:02:55;14.52;;;8.48;;
4873;SDS011;2451;49.970;9.068;2024-01-30T12:05:22;13.90;;;8.68;;
4873;SDS011;2451;49.970;9.068;2024-01-30T12:07:48;13.02;;;8.18;;
4873;SDS011;2451;49.970;9.068;2024-01-30T12:10:14;13.90;;;8.05;;
4873;SDS011;2451;49.970;9.068;2024-01-30T12:12:45;13.43;;;8.55;;
4873;SDS011;2451;49.970;9.068;2024-01-30T12:15:12;14.82;;;8.43;;
4873;SDS011;2451;49.970;9.068;2024-01-30T12:17:39;15.18;;;8.40;;
4873;SDS011;2451;49.970;9.068;2024-01-30T12:20:05;16.48;;;8.30;;
4873;SDS011;2451;49.970;9.068;2024-01-30T12:22:35;14.73;;;7.50;;
4873;SDS011;2451;49.970;9.068;2024-01-30T12:27:28;12.65;;;7.72;;
4873;SDS011;2451;49.970;9.068;2024-01-30T12:29:57;12.43;;;6.85;;
4873;SDS011;2451;49.970;9.068;2024-01-30T12:32:23;13.48;;;7.65;;
4873;SDS011;2451;49.970;9.068;2024-01-30T12:34:49;12.07;;;7.10;;
4873;SDS011;2451;49.970;9.068;2024-01-30T12:37:15;15.55;;;7.70;;
4873;SDS011;2451;49.970;9.068;2024-01-30T12:39:44;15.77;;;8.30;;
4873;SDS011;2451;49.970;9.068;2024-01-30T12:42:13;11.00;;;7.38;;
4873;SDS011;2451;49.970;9.068;2024-01-30T12:44:39;9.70;;;6.30;;
4873;SDS011;2451;49.970;9.068;2024-01-30T12:47:05;14.07;;;7.35;;
4873;SDS011;2451;49.970;9.068;2024-01-30T12:49:31;11.95;;;6.85;;
4873;SDS011;2451;49.970;9.068;2024-01-30T12:51:56;10.73;;;7.05;;
4873;SDS011;2451;49.970;9.068;2024-01-30T12:54:25;10.65;;;6.60;;
4873;SDS011;2451;49.970;9.068;2024-01-30T12:56:51;10.32;;;6.70;;
4873;SDS011;2451;49.970;9.068;2024-01-30T12:59:16;12.93;;;7.50;;
4873;SDS011;2451;49.970;9.068;2024-01-30T13:01:42;16.73;;;9.35;;
4873;SDS011;2451;49.970;9.068;2024-01-30T13:04:08;10.55;;;6.63;;
4873;SDS011;2451;49.970;9.068;2024-01-30T13:06:33;11.70;;;7.05;;
4873;SDS011;2451;49.970;9.068;2024-01-30T13:08:59;12.18;;;6.93;;
4873;SDS011;2451;49.970;9.068;2024-01-30T13:11:24;10.43;;;6.55;;
4873;SDS011;2451;49.970;9.068;2024-01-30T13:13:50;12.90;;;6.88;;
4873;SDS011;2451;49.970;9.068;2024-01-30T13:16:16;10.73;;;6.88;;
4873;SDS011;2451;49.970;9.068;2024-01-30T13:18:42;12.70;;;7.15;;
4873;SDS011;2451;49.970;9.068;2024-01-30T13:21:09;11.77;;;6.88;;
4873;SDS011;2451;49.970;9.068;2024-01-30T13:23:34;9.65;;;6.53;;
4873;SDS011;2451;49.970;9.068;2024-01-30T13:26:00;11.50;;;7.38;;
4873;SDS011;2451;49.970;9.068;2024-01-30T13:28:26;14.23;;;7.05;;
4873;SDS011;2451;49.970;9.068;2024-01-30T13:30:51;10.70;;;6.00;;
4873;SDS011;2451;49.970;9.068;2024-01-30T13:33:17;11.82;;;6.85;;
4873;SDS011;2451;49.970;9.068;2024-01-30T13:35:45;11.25;;;6.82;;
4873;SDS011;2451;49.970;9.068;2024-01-30T13:38:11;14.02;;;6.82;;
4873;SDS011;2451;49.970;9.068;2024-01-30T13:40:36;18.38;;;9.30;;
4873;SDS011;2451;49.970;9.068;2024-01-30T13:43:02;12.70;;;6.82;;
4873;SDS011;2451;49.970;9.068;2024-01-30T13:45:27;10.35;;;6.57;;
4873;SDS011;2451;49.970;9.068;2024-01-30T13:47:53;11.10;;;6.65;;
4873;SDS011;2451;49.970;9.068;2024-01-30T13:50:19;11.60;;;6.80;;
4873;SDS011;2451;49.970;9.068;2024-01-30T13:52:44;13.63;;;7.07;;
4873;SDS011;2451;49.970;9.068;2024-01-30T13:55:10;9.55;;;5.82;;
4873;SDS011;2451;49.970;9.068;2024-01-30T13:57:36;10.38;;;6.30;;
4873;SDS011;2451;49.970;9.068;2024-01-30T14:00:03;11.32;;;6.20;;
4873;SDS011;2451;49.970;9.068;2024-01-30T14:04:57;10.30;;;6.90;;
4873;SDS011;2451;49.970;9.068;2024-01-30T14:07:23;11.38;;;6.88;;
4873;SDS011;2451;49.970;9.068;2024-01-30T14:09:48;11.18;;;6.32;;
4873;SDS011;2451;49.970;9.068;2024-01-30T14:12:20;10.95;;;6.25;;
4873;SDS011;2451;49.970;9.068;2024-01-30T14:14:46;9.75;;;6.10;;
4873;SDS011;2451;49.970;9.068;2024-01-30T14:17:12;12.85;;;7.15;;
4873;SDS011;2451;49.970;9.068;2024-01-30T14:19:38;14.20;;;8.30;;
4873;SDS011;2451;49.970;9.068;2024-01-30T14:22:03;11.02;;;7.07;;
4873;SDS011;2451;49.970;9.068;2024-01-30T14:24:29;11.88;;;6.80;;
4873;SDS011;2451;49.970;9.068;2024-01-30T14:26:54;13.57;;;6.63;;
4873;SDS011;2451;49.970;9.068;2024-01-30T14:29:20;11.93;;;6.70;;
4873;SDS011;2451;49.970;9.068;2024-01-30T14:31:46;13.40;;;6.75;;
4873;SDS011;2451;49.970;9.068;2024-01-30T14:34:11;11.30;;;6.68;;
4873;SDS011;2451;49.970;9.068;2024-01-30T14:36:37;11.00;;;7.10;;
4873;SDS011;2451;49.970;9.068;2024-01-30T14:39:04;9.98;;;6.53;;
4873;SDS011;2451;49.970;9.068;2024-01-30T14:41:31;10.65;;;6.60;;
4873;SDS011;2451;49.970;9.068;2024-01-30T14:43:57;16.13;;;8.00;;
4873;SDS011;2451;49.970;9.068;2024-01-30T14:46:23;15.15;;;9.07;;
4873;SDS011;2451;49.970;9.068;2024-01-30T14:48:48;13.90;;;8.60;;
4873;SDS011;2451;49.970;9.068;2024-01-30T14:51:16;13.48;;;8.05;;
4873;SDS011;2451;49.970;9.068;2024-01-30T14:53:42;12.50;;;8.25;;
4873;SDS011;2451;49.970;9.068;2024-01-30T14:56:08;11.82;;;7.50;;
4873;SDS011;2451;49.970;9.068;2024-01-30T14:58:35;14.43;;;7.63;;
4873;SDS011;2451;49.970;9.068;2024-01-30T15:01:00;15.93;;;9.65;;
4873;SDS011;2451;49.970;9.068;2024-01-30T15:03:27;20.08;;;11.15;;
4873;SDS011;2451;49.970;9.068;2024-01-30T15:08:21;15.30;;;8.90;;
4873;SDS011;2451;49.970;9.068;2024-01-30T15:10:47;14.93;;;8.38;;
4873;SDS011;2451;49.970;9.068;2024-01-30T15:13:12;16.10;;;8.23;;